createdAt,value
2022-10-19T00:00:09.559Z,102595.09
2022-10-19T00:02:41.958Z,102589.59
2022-10-19T00:05:14.429Z,102599.19
2022-10-19T00:07:46.966Z,102593.59
2022-10-19T00:10:19.403Z,102583.53
2022-10-19T00:12:51.919Z,102575.19
2022-10-19T00:15:24.363Z,102577.78
2022-10-19T00:17:56.889Z,102581.16
2022-10-19T00:20:30.547Z,102582.19
2022-10-19T00:23:04.522Z,102577.69
2022-10-19T00:25:38.520Z,102578.59
2022-10-19T00:28:10.916Z,102576.44
2022-10-19T00:30:43.306Z,102577.84
2022-10-19T00:33:21.202Z,102577.78
2022-10-19T00:35:53.910Z,102580.53
2022-10-19T00:38:26.481Z,102571.88
2022-10-19T00:40:58.951Z,102572.47
2022-10-19T00:43:33.309Z,102575.81
2022-10-19T00:46:05.677Z,102570.56
2022-10-19T00:48:38.258Z,102571.03
2022-10-19T00:51:11.018Z,102578.13
2022-10-19T00:53:43.530Z,102575.59
2022-10-19T00:56:16.263Z,102574.75
2022-10-19T00:58:48.638Z,102581.19
2022-10-19T01:01:23.980Z,102585.00
2022-10-19T01:03:56.771Z,102581.00
2022-10-19T01:06:29.570Z,102583.50
2022-10-19T01:09:02.051Z,102581.03
2022-10-19T01:11:40.349Z,102577.16
2022-10-19T01:14:14.628Z,102568.22
2022-10-19T01:17:13.084Z,102578.03
2022-10-19T01:20:08.176Z,102569.91
2022-10-19T01:22:52.523Z,102570.09
2022-10-19T01:25:45.217Z,102571.78
2022-10-19T01:28:31.636Z,102576.84
2022-10-19T01:31:18.776Z,102571.59
2022-10-19T01:34:00.528Z,102566.22
2022-10-19T01:36:38.304Z,102572.66
2022-10-19T01:39:10.664Z,102563.13
2022-10-19T01:41:46.376Z,102565.44
2022-10-19T01:44:39.757Z,102562.84
2022-10-19T01:47:16.936Z,102559.66
2022-10-19T01:49:53.832Z,102565.47
2022-10-19T01:52:27.143Z,102564.31
2022-10-19T01:55:02.132Z,102563.63
2022-10-19T01:57:37.443Z,102563.38
2022-10-19T02:00:11.311Z,102561.19
2022-10-19T02:02:46.471Z,102559.31
2022-10-19T02:05:22.988Z,102555.06
2022-10-19T02:07:58.226Z,102547.63
2022-10-19T02:10:32.890Z,102543.81
2022-10-19T02:13:07.239Z,102530.56
2022-10-19T02:15:42.932Z,102533.56
2022-10-19T02:18:17.716Z,102523.75
2022-10-19T02:20:50.204Z,102531.28
2022-10-19T02:23:24.077Z,102524.19
2022-10-19T02:25:56.935Z,102519.84
2022-10-19T02:28:30.180Z,102512.16
2022-10-19T02:31:02.957Z,102521.00
2022-10-19T02:33:35.428Z,102518.16
2022-10-19T02:36:08.213Z,102515.25
2022-10-19T02:38:41.652Z,102511.59
2022-10-19T02:41:17.978Z,102506.06
2022-10-19T02:43:54.502Z,102505.94
2022-10-19T02:49:18.160Z,102505.63
2022-10-19T02:51:56.737Z,102502.34
2022-10-19T02:54:30.713Z,102505.44
2022-10-19T02:57:09.087Z,102489.09
2022-10-19T02:59:44.432Z,102496.19
2022-10-19T03:02:18.139Z,102496.00
2022-10-19T03:04:50.823Z,102506.41
2022-10-19T03:07:23.293Z,102504.44
2022-10-19T03:09:55.949Z,102502.25
2022-10-19T03:12:28.495Z,102496.59
2022-10-19T03:15:00.972Z,102498.69
2022-10-19T03:17:34.102Z,102497.19
2022-10-19T03:20:06.889Z,102497.88
2022-10-19T03:22:40.590Z,102504.59
2022-10-19T03:25:13.299Z,102498.06
2022-10-19T03:27:45.769Z,102498.44
2022-10-19T03:30:18.157Z,102496.75
2022-10-19T03:32:50.626Z,102496.53
2022-10-19T03:35:23.068Z,102499.72
2022-10-19T03:37:55.656Z,102495.94
2022-10-19T03:40:28.148Z,102488.09
2022-10-19T03:43:00.659Z,102494.69
2022-10-19T03:45:33.199Z,102498.81
2022-10-19T03:48:06.262Z,102500.94
2022-10-19T03:50:38.632Z,102503.47
2022-10-19T03:53:11.167Z,102502.56
2022-10-19T03:55:46.093Z,102504.59
2022-10-19T03:58:18.495Z,102504.16
2022-10-19T04:00:51.049Z,102495.25
2022-10-19T04:03:23.622Z,102491.72
2022-10-19T04:06:01.995Z,102503.69
2022-10-19T04:08:34.652Z,102515.81
2022-10-19T04:11:08.661Z,102511.81
2022-10-19T04:13:41.429Z,102516.84
2022-10-19T04:16:14.125Z,102511.72
2022-10-19T04:18:46.837Z,102507.97
2022-10-19T04:21:21.761Z,102499.44
2022-10-19T04:24:00.669Z,102499.22
2022-10-19T04:26:34.092Z,102502.53
2022-10-19T04:29:10.891Z,102497.66
2022-10-19T04:31:43.371Z,102491.72
2022-10-19T04:34:16.618Z,102499.00
2022-10-19T04:36:49.412Z,102496.06
2022-10-19T04:39:22.048Z,102493.91
2022-10-19T04:41:54.722Z,102490.13
2022-10-19T04:44:30.136Z,102500.06
2022-10-19T04:47:02.690Z,102500.41
2022-10-19T04:49:35.237Z,102497.22
2022-10-19T04:52:07.918Z,102495.84
2022-10-19T04:54:40.384Z,102487.66
2022-10-19T04:57:15.220Z,102495.06
2022-10-19T04:59:49.625Z,102498.13
2022-10-19T05:02:30.592Z,102492.78
2022-10-19T05:05:02.886Z,102489.69
2022-10-19T05:07:35.498Z,102487.78
2022-10-19T05:10:08.821Z,102486.28
2022-10-19T05:12:41.322Z,102478.06
2022-10-19T05:15:13.875Z,102479.66
2022-10-19T05:17:46.574Z,102484.00
2022-10-19T05:20:19.052Z,102484.09
2022-10-19T05:22:51.942Z,102493.34
2022-10-19T05:25:24.445Z,102486.50
2022-10-19T05:27:57.101Z,102488.97
2022-10-19T05:30:29.751Z,102488.97
2022-10-19T05:33:02.400Z,102481.91
2022-10-19T05:35:34.847Z,102484.88
2022-10-19T05:38:07.477Z,102470.94
2022-10-19T05:40:44.618Z,102466.84
2022-10-19T05:43:17.026Z,102457.03
2022-10-19T05:45:52.679Z,102459.44
2022-10-19T05:48:32.964Z,102453.41
2022-10-19T05:51:06.493Z,102470.97
2022-10-19T05:56:22.883Z,102474.16
2022-10-19T05:58:56.162Z,102471.19
2022-10-19T06:01:29.200Z,102458.41
2022-10-19T06:04:02.222Z,102460.34
2022-10-19T06:06:34.961Z,102459.63
2022-10-19T06:09:07.910Z,102455.16
2022-10-19T06:11:42.328Z,102456.94
2022-10-19T06:14:17.919Z,102455.56
2022-10-19T06:16:50.800Z,102451.78
2022-10-19T06:19:23.335Z,102442.97
2022-10-19T06:21:55.739Z,102443.53
2022-10-19T06:24:28.599Z,102440.63
2022-10-19T06:27:01.210Z,102449.81
2022-10-19T06:29:33.766Z,102455.06
2022-10-19T06:32:06.301Z,102455.13
2022-10-19T06:34:38.718Z,102453.63
2022-10-19T06:37:11.735Z,102452.16
2022-10-19T06:39:44.327Z,102458.16
2022-10-19T06:42:16.874Z,102453.22
2022-10-19T06:44:49.399Z,102463.94
2022-10-19T06:47:22.133Z,102463.22
2022-10-19T06:49:54.534Z,102475.53
2022-10-19T06:52:27.038Z,102470.94
2022-10-19T06:54:59.564Z,102473.44
2022-10-19T06:57:32.426Z,102471.28
2022-10-19T07:00:06.149Z,102464.47
2022-10-19T07:02:38.983Z,102467.03
2022-10-19T07:05:11.431Z,102464.97
2022-10-19T07:07:45.057Z,102458.22
2022-10-19T07:10:17.656Z,102468.44
2022-10-19T07:12:50.158Z,102460.69
2022-10-19T07:15:22.591Z,102464.88
2022-10-19T07:17:55.061Z,102467.44
2022-10-19T07:20:27.453Z,102473.22
2022-10-19T07:22:59.967Z,102464.97
2022-10-19T07:25:32.522Z,102469.25
2022-10-19T07:28:05.372Z,102472.75
2022-10-19T07:30:38.908Z,102476.94
2022-10-19T07:33:11.399Z,102488.25
2022-10-19T07:35:43.827Z,102484.22
2022-10-19T07:38:16.257Z,102484.00
2022-10-19T07:40:48.806Z,102474.78
2022-10-19T07:43:21.218Z,102470.50
2022-10-19T07:46:03.816Z,102471.03
2022-10-19T07:48:36.700Z,102462.03
2022-10-19T07:51:09.975Z,102463.28
2022-10-19T07:53:44.521Z,102464.56
2022-10-19T07:56:18.368Z,102460.38
2022-10-19T07:58:53.936Z,102462.84
2022-10-19T08:01:27.990Z,102460.22
2022-10-19T08:06:54.663Z,102453.78
2022-10-19T08:09:51.626Z,102453.09
2022-10-19T08:12:19.711Z,102453.97
2022-10-19T08:14:53.574Z,102451.34
2022-10-19T08:17:26.007Z,102456.66
2022-10-19T08:20:01.098Z,102456.47
2022-10-19T08:22:33.656Z,102460.16
2022-10-19T08:25:06.584Z,102459.47
2022-10-19T08:27:39.091Z,102454.00
2022-10-19T08:30:11.856Z,102450.13
2022-10-19T08:32:44.177Z,102448.53
2022-10-19T08:35:16.676Z,102447.75
2022-10-19T08:37:49.289Z,102437.50
2022-10-19T08:40:28.422Z,102438.31
2022-10-19T08:43:22.514Z,102433.19
2022-10-19T08:46:01.437Z,102428.75
2022-10-19T08:48:36.954Z,102429.56
2022-10-19T08:51:13.216Z,102435.09
2022-10-19T08:53:45.664Z,102429.03
2022-10-19T08:56:49.922Z,102428.28
2022-10-19T08:59:27.834Z,102431.81
2022-10-19T09:02:10.762Z,102435.34
2022-10-19T09:04:46.991Z,102432.69
2022-10-19T09:07:19.669Z,102433.88
2022-10-19T09:10:04.017Z,102433.59
2022-10-19T09:12:48.198Z,102436.63
2022-10-19T09:15:25.235Z,102423.03
2022-10-19T09:17:57.708Z,102434.63
2022-10-19T09:20:33.892Z,102440.63
2022-10-19T09:23:26.522Z,102436.44
2022-10-19T09:25:58.865Z,102452.44
2022-10-19T09:28:38.978Z,102452.91
2022-10-19T09:31:15.161Z,102456.59
2022-10-19T09:33:52.173Z,102446.50
2022-10-19T09:36:49.430Z,102450.19
2022-10-19T09:39:21.339Z,102439.88
2022-10-19T09:41:59.728Z,102435.75
2022-10-19T09:44:32.355Z,102426.34
2022-10-19T09:47:12.998Z,102434.44
2022-10-19T09:49:47.396Z,102429.28
2022-10-19T09:52:31.846Z,102432.22
2022-10-19T09:55:17.780Z,102420.50
2022-10-19T09:57:57.630Z,102421.75
2022-10-19T10:00:37.016Z,102419.16
2022-10-19T10:03:21.672Z,102419.44
2022-10-19T10:05:56.345Z,102410.47
2022-10-19T10:08:31.570Z,102404.59
2022-10-19T10:11:08.747Z,102400.56
2022-10-19T10:13:48.908Z,102404.13
2022-10-19T10:16:22.735Z,102406.75
2022-10-19T10:18:59.788Z,102397.16
2022-10-19T10:21:46.095Z,102400.84
2022-10-19T10:24:19.871Z,102399.94
2022-10-19T10:26:57.498Z,102400.09
2022-10-19T10:29:32.898Z,102397.81
2022-10-19T10:32:07.584Z,102395.56
2022-10-19T10:34:51.038Z,102401.47
2022-10-19T10:37:29.727Z,102392.16
2022-10-19T10:40:04.841Z,102399.81
2022-10-19T10:42:44.581Z,102394.31
2022-10-19T10:45:29.517Z,102396.16
2022-10-19T10:48:20.754Z,102389.16
2022-10-19T10:50:53.370Z,102379.78
2022-10-19T10:53:32.077Z,102379.56
2022-10-19T10:56:06.262Z,102385.38
2022-10-19T10:58:44.530Z,102387.81
2022-10-19T11:01:24.166Z,102378.03
2022-10-19T11:04:02.889Z,102380.66
2022-10-19T11:06:43.727Z,102373.88
2022-10-19T11:09:29.608Z,102373.69
2022-10-19T11:12:04.543Z,102374.22
2022-10-19T11:14:41.661Z,102368.72
2022-10-19T11:17:25.930Z,102366.28
2022-10-19T11:19:58.679Z,102371.50
2022-10-19T11:22:59.251Z,102357.59
2022-10-19T11:25:36.141Z,102354.38
2022-10-19T11:28:24.041Z,102347.13
2022-10-19T11:31:14.735Z,102341.66
2022-10-19T11:33:53.301Z,102330.16
2022-10-19T11:36:45.632Z,102314.97
2022-10-19T11:39:18.440Z,102314.56
2022-10-19T11:42:01.954Z,102306.13
2022-10-19T11:44:53.401Z,102290.63
2022-10-19T11:47:30.238Z,102284.09
2022-10-19T11:50:11.098Z,102269.53
2022-10-19T11:52:46.409Z,102267.31
2022-10-19T11:55:38.042Z,102257.34
2022-10-19T11:58:10.725Z,102252.06
2022-10-19T12:00:56.506Z,102246.63
2022-10-19T12:03:34.841Z,102242.09
2022-10-19T12:06:12.921Z,102244.91
2022-10-19T12:08:45.363Z,102226.13
2022-10-19T12:11:45.533Z,102223.19
2022-10-19T12:14:22.310Z,102233.38
2022-10-19T12:16:56.491Z,102231.28
2022-10-19T12:19:32.372Z,102232.38
2022-10-19T12:22:07.518Z,102227.41
2022-10-19T12:24:40.878Z,102221.75
2022-10-19T12:27:17.371Z,102213.28
2022-10-19T12:29:53.853Z,102207.34
2022-10-19T12:32:28.025Z,102209.56
2022-10-19T12:35:09.603Z,102197.06
2022-10-19T12:37:49.171Z,102195.84
2022-10-19T12:40:32.943Z,102190.56
2022-10-19T12:43:11.099Z,102186.03
2022-10-19T12:46:02.128Z,102183.03
2022-10-19T12:48:36.457Z,102173.41
2022-10-19T12:51:12.152Z,102178.88
2022-10-19T12:53:50.515Z,102163.75
2022-10-19T12:56:24.800Z,102160.28
2022-10-19T12:59:02.359Z,102162.22
2022-10-19T13:01:35.127Z,102157.91
2022-10-19T13:04:14.523Z,102150.09
2022-10-19T13:06:49.514Z,102152.22
2022-10-19T13:09:28.884Z,102153.41
2022-10-19T13:12:25.657Z,102136.22
2022-10-19T13:14:58.567Z,102128.41
2022-10-19T13:17:36.511Z,102126.28
2022-10-19T13:20:15.463Z,102120.75
2022-10-19T13:22:49.998Z,102116.75
2022-10-19T13:25:23.847Z,102113.06
2022-10-19T13:28:02.611Z,102099.84
2022-10-19T13:30:45.311Z,102093.53
2022-10-19T13:33:33.172Z,102092.06
2022-10-19T13:36:08.550Z,102093.53
2022-10-19T13:38:43.291Z,102097.56
2022-10-19T13:41:21.750Z,102088.94
2022-10-19T13:44:10.321Z,102089.75
2022-10-19T13:46:45.773Z,102087.28
2022-10-19T13:49:27.728Z,102075.47
2022-10-19T13:52:21.557Z,102014.19
2022-10-19T13:54:54.777Z,102071.16
2022-10-19T13:57:31.318Z,102056.56
2022-10-19T14:00:05.244Z,102051.78
2022-10-19T14:02:50.829Z,102045.91
2022-10-19T14:05:47.100Z,102051.06
2022-10-19T14:08:25.926Z,102053.84
2022-10-19T14:11:01.523Z,102049.06
2022-10-19T14:13:34.156Z,102048.28
2022-10-19T14:16:06.741Z,102050.19
2022-10-19T14:18:40.747Z,102053.19
2022-10-19T14:21:15.402Z,102056.91
2022-10-19T14:23:48.059Z,102058.31
2022-10-19T14:26:22.629Z,102048.41
2022-10-19T14:28:57.317Z,102051.25
2022-10-19T14:31:35.277Z,102047.28
2022-10-19T14:34:09.341Z,102046.50
2022-10-19T14:36:48.036Z,102044.13
2022-10-19T14:39:33.264Z,102041.59
2022-10-19T14:42:09.725Z,102041.00
2022-10-19T14:44:43.193Z,102033.56
2022-10-19T14:47:27.851Z,102030.13
2022-10-19T14:50:00.584Z,102018.53
2022-10-19T14:52:37.660Z,102006.16
2022-10-19T14:55:18.077Z,102009.16
2022-10-19T14:57:52.426Z,102006.84
2022-10-19T15:02:58.860Z,101996.44
2022-10-19T15:05:33.778Z,101994.22
2022-10-19T15:08:12.377Z,101995.00
2022-10-19T15:10:46.720Z,101983.25
2022-10-19T15:13:31.638Z,101984.78
2022-10-19T15:16:04.133Z,101986.13
2022-10-19T15:18:49.190Z,101989.91
2022-10-19T15:21:22.501Z,101985.03
2022-10-19T15:24:06.043Z,101981.63
2022-10-19T15:26:38.991Z,101975.94
2022-10-19T15:29:20.027Z,101972.19
2022-10-19T15:31:56.501Z,101969.16
2022-10-19T15:34:29.812Z,101957.13
2022-10-19T15:37:03.744Z,101960.03
2022-10-19T15:39:40.989Z,101958.91
2022-10-19T15:42:32.171Z,101944.38
2022-10-19T15:45:24.706Z,101953.16
2022-10-19T15:48:15.996Z,101949.28
2022-10-19T15:50:49.456Z,101941.44
2022-10-19T15:53:22.127Z,101943.09
2022-10-19T15:55:55.002Z,101926.13
2022-10-19T15:58:28.980Z,101924.19
2022-10-19T16:01:02.049Z,101925.84
2022-10-19T16:03:34.521Z,101920.78
2022-10-19T16:06:07.092Z,101911.72
2022-10-19T16:08:39.678Z,101913.75
2022-10-19T16:11:16.599Z,101907.47
2022-10-19T16:13:49.190Z,101900.78
2022-10-19T16:16:26.068Z,101897.69
2022-10-19T16:18:59.026Z,101897.81
2022-10-19T16:21:33.102Z,101888.41
2022-10-19T16:24:05.844Z,101885.34
2022-10-19T16:26:38.481Z,101887.03
2022-10-19T16:29:11.241Z,101896.59
2022-10-19T16:31:44.001Z,101891.97
2022-10-19T16:34:16.551Z,101895.22
2022-10-19T16:36:49.148Z,101881.03
2022-10-19T16:39:21.684Z,101879.06
2022-10-19T16:41:55.730Z,101870.03
2022-10-19T16:44:28.271Z,101866.94
2022-10-19T16:47:03.479Z,101864.53
2022-10-19T16:49:36.291Z,101855.88
2022-10-19T16:52:12.836Z,101853.19
2022-10-19T16:54:54.517Z,101848.88
2022-10-19T16:57:27.238Z,101837.03
2022-10-19T16:59:59.847Z,101844.13
2022-10-19T17:02:32.797Z,101854.41
2022-10-19T17:05:08.430Z,101859.94
2022-10-19T17:07:41.155Z,101854.41
2022-10-19T17:10:16.468Z,101847.31
2022-10-19T17:12:49.515Z,101845.78
2022-10-19T17:15:42.070Z,101848.16
2022-10-19T17:18:15.797Z,101845.81
2022-10-19T17:20:49.508Z,101839.50
2022-10-19T17:23:21.902Z,101840.34
2022-10-19T17:25:54.313Z,101834.44
2022-10-19T17:28:28.174Z,101827.75
2022-10-19T17:31:05.760Z,101819.88
2022-10-19T17:33:39.499Z,101826.16
2022-10-19T17:36:14.075Z,101826.97
2022-10-19T17:38:46.921Z,101823.88
2022-10-19T17:41:20.165Z,101818.41
2022-10-19T17:43:53.049Z,101822.28
2022-10-19T17:46:34.449Z,101824.25
2022-10-19T17:49:07.461Z,101828.59
2022-10-19T17:51:40.042Z,101833.34
2022-10-19T17:54:13.697Z,101823.88
2022-10-19T17:56:46.461Z,101822.66
2022-10-19T17:59:30.098Z,101826.25
2022-10-19T18:02:09.188Z,101845.16
2022-10-19T18:04:41.630Z,101841.25
2022-10-19T18:07:14.265Z,101836.09
2022-10-19T18:09:46.720Z,101832.56
2022-10-19T18:12:19.291Z,101833.34
2022-10-19T18:14:51.944Z,101830.19
2022-10-19T18:17:27.656Z,101829.47
2022-10-19T18:20:00.563Z,101818.03
2022-10-19T18:22:34.626Z,101824.72
2022-10-19T18:25:07.365Z,101820.00
2022-10-19T18:27:40.227Z,101811.75
2022-10-19T18:30:12.845Z,101796.38
2022-10-19T18:32:49.120Z,101805.84
2022-10-19T18:35:21.776Z,101810.63
2022-10-19T18:37:54.371Z,101819.31
2022-10-19T18:40:27.033Z,101819.34
2022-10-19T18:42:59.548Z,101818.56
2022-10-19T18:45:33.619Z,101805.19
2022-10-19T18:48:06.462Z,101800.44
2022-10-19T18:50:39.005Z,101791.78
2022-10-19T18:53:11.616Z,101776.81
2022-10-19T18:55:44.686Z,101760.25
2022-10-19T18:58:17.844Z,101751.56
2022-10-19T19:00:50.642Z,101753.13
2022-10-19T19:03:25.324Z,101759.47
2022-10-19T19:06:01.704Z,101769.34
2022-10-19T19:08:34.519Z,101762.66
2022-10-19T19:11:22.540Z,101757.13
2022-10-19T19:13:59.914Z,101746.09
2022-10-19T19:16:34.475Z,101742.19
2022-10-19T19:19:09.028Z,101757.97
2022-10-19T19:21:44.085Z,101748.91
2022-10-19T19:24:23.892Z,101745.38
2022-10-19T19:26:58.762Z,101742.22
2022-10-19T19:29:31.453Z,101730.38
2022-10-19T19:32:05.856Z,101732.38
2022-10-19T19:34:38.636Z,101713.84
2022-10-19T19:37:11.464Z,101707.94
2022-10-19T19:39:44.753Z,101696.13
2022-10-19T19:42:18.421Z,101697.72
2022-10-19T19:44:51.334Z,101684.31
2022-10-19T19:47:24.108Z,101679.25
2022-10-19T19:49:56.611Z,101676.09
2022-10-19T19:52:29.234Z,101664.28
2022-10-19T19:57:39.891Z,101671.41
2022-10-19T20:00:16.155Z,101665.91
2022-10-19T20:02:55.894Z,101664.34
2022-10-19T20:05:28.616Z,101663.56
2022-10-19T20:08:01.565Z,101658.09
2022-10-19T20:10:38.103Z,101646.25
2022-10-19T20:13:10.631Z,101652.53
2022-10-19T20:15:44.197Z,101654.94
2022-10-19T20:18:20.004Z,101649.03
2022-10-19T20:20:52.772Z,101640.75
2022-10-19T20:23:25.613Z,101639.97
2022-10-19T20:25:58.390Z,101638.81
2022-10-19T20:28:34.039Z,101638.81
2022-10-19T20:31:09.394Z,101640.00
2022-10-19T20:33:44.290Z,101630.56
2022-10-19T20:36:19.662Z,101633.72
2022-10-19T20:38:54.256Z,101629.78
2022-10-19T20:41:27.827Z,101621.50
2022-10-19T20:44:02.043Z,101620.72
2022-10-19T20:46:35.256Z,101627.41
2022-10-19T20:49:07.862Z,101625.06
2022-10-19T20:51:41.236Z,101615.59
2022-10-19T20:54:14.111Z,101621.88
2022-10-19T20:56:48.355Z,101625.84
2022-10-19T20:59:21.960Z,101624.28
2022-10-19T21:01:55.568Z,101618.75
2022-10-19T21:04:28.470Z,101613.25
2022-10-19T21:07:03.457Z,101604.22
2022-10-19T21:09:36.166Z,101606.16
2022-10-19T21:12:08.883Z,101604.56
2022-10-19T21:14:41.747Z,101603.78
2022-10-19T21:17:14.270Z,101603.00
2022-10-19T21:19:48.950Z,101603.81
2022-10-19T21:22:22.654Z,101608.16
2022-10-19T21:24:55.331Z,101600.66
2022-10-19T21:27:27.945Z,101610.13
2022-10-19T21:30:00.470Z,101603.03
2022-10-19T21:32:33.360Z,101597.94
2022-10-19T21:35:07.784Z,101596.75
2022-10-19T21:37:40.953Z,101592.81
2022-10-19T21:40:13.476Z,101588.88
2022-10-19T21:42:46.085Z,101591.66
2022-10-19T21:45:29.902Z,101590.47
2022-10-19T21:48:03.632Z,101589.31
2022-10-19T21:50:37.490Z,101584.19
2022-10-19T21:53:10.105Z,101571.19
2022-10-19T21:55:42.721Z,101565.66
2022-10-19T21:58:15.417Z,101565.66
2022-10-19T22:00:48.052Z,101561.34
2022-10-19T22:03:22.896Z,101553.50
2022-10-19T22:05:55.337Z,101546.78
2022-10-19T22:08:28.131Z,101545.97
2022-10-19T22:11:05.000Z,101548.75
2022-10-19T22:13:38.022Z,101542.84
2022-10-19T22:16:12.342Z,101542.84
2022-10-19T22:18:44.878Z,101542.84
2022-10-19T22:21:22.158Z,101544.81
2022-10-19T22:24:05.716Z,101534.22
2022-10-19T22:26:39.981Z,101533.78
2022-10-19T22:29:12.938Z,101527.91
2022-10-19T22:31:45.494Z,101522.00
2022-10-19T22:34:18.227Z,101522.00
2022-10-19T22:36:50.822Z,101518.84
2022-10-19T22:39:26.977Z,101513.34
2022-10-19T22:42:03.719Z,101510.22
2022-10-19T22:44:36.180Z,101503.09
2022-10-19T22:47:08.804Z,101496.81
2022-10-19T22:49:41.492Z,101500.78
2022-10-19T22:52:14.084Z,101492.50
2022-10-19T22:54:46.839Z,101484.25
2022-10-19T22:57:19.571Z,101488.94
2022-10-19T22:59:52.359Z,101476.38
2022-10-19T23:02:25.187Z,101468.09
2022-10-19T23:04:57.685Z,101472.41
2022-10-19T23:07:30.407Z,101472.41
2022-10-19T23:10:03.179Z,101466.91
2022-10-19T23:12:35.977Z,101463.75
2022-10-19T23:15:09.158Z,101455.91
2022-10-19T23:17:41.956Z,101452.38
2022-10-19T23:20:14.630Z,101444.91
2022-10-19T23:22:47.321Z,101448.81
2022-10-19T23:25:19.893Z,101441.34
2022-10-19T23:27:53.006Z,101444.88
2022-10-19T23:30:25.758Z,101453.53
2022-10-19T23:32:58.323Z,101446.47
2022-10-19T23:35:30.778Z,101449.22
2022-10-19T23:38:03.326Z,101458.28
2022-10-19T23:40:36.367Z,101456.75
2022-10-19T23:43:09.167Z,101447.69
2022-10-19T23:45:42.212Z,101430.78
2022-10-19T23:48:14.908Z,101433.94
2022-10-19T23:50:56.135Z,101422.91
2022-10-19T23:53:29.954Z,101424.88
2022-10-19T23:56:03.439Z,101420.94
2022-10-19T23:58:36.196Z,101415.81
